createdAt,value
2023-05-19T00:01:31.175Z,98657.94
2023-05-19T00:04:02.709Z,98658.81
2023-05-19T00:06:33.288Z,98672.63
2023-05-19T00:09:02.086Z,98666.09
2023-05-19T00:11:29.944Z,98670.16
2023-05-19T00:13:58.063Z,98670.59
2023-05-19T00:16:26.888Z,98672.59
2023-05-19T00:18:54.437Z,98665.06
2023-05-19T00:21:21.490Z,98670.34
2023-05-19T00:23:49.972Z,98660.88
2023-05-19T00:26:16.961Z,98662.69
2023-05-19T00:28:54.544Z,98676.69
2023-05-19T00:31:21.654Z,98679.28
2023-05-19T00:33:48.693Z,98679.06
2023-05-19T00:36:15.926Z,98684.44
2023-05-19T00:38:42.993Z,98685.66
2023-05-19T00:41:11.892Z,98690.25
2023-05-19T00:43:38.893Z,98689.59
2023-05-19T00:46:07.455Z,98696.88
2023-05-19T00:48:34.613Z,98686.13
2023-05-19T00:51:04.596Z,98695.22
2023-05-19T00:53:32.260Z,98695.22
2023-05-19T00:56:00.720Z,98695.00
2023-05-19T00:58:30.534Z,98697.56
2023-05-19T01:01:03.861Z,98695.22
2023-05-19T01:03:32.712Z,98702.16
2023-05-19T01:06:07.394Z,98699.03
2023-05-19T01:08:35.885Z,98695.31
2023-05-19T01:11:03.140Z,98688.47
2023-05-19T01:13:32.125Z,98701.66
2023-05-19T01:16:07.675Z,98695.81
2023-05-19T01:18:46.355Z,98691.66
2023-05-19T01:21:36.549Z,98683.50
2023-05-19T01:24:22.924Z,98701.31
2023-05-19T01:27:07.598Z,98700.88
2023-05-19T01:30:00.282Z,98710.41
2023-05-19T01:32:30.384Z,98704.91
2023-05-19T01:34:58.707Z,98695.81
2023-05-19T01:37:27.022Z,98701.97
2023-05-19T01:39:56.047Z,98700.97
2023-05-19T01:42:24.079Z,98705.69
2023-05-19T01:44:52.498Z,98708.84
2023-05-19T01:47:19.919Z,98709.38
2023-05-19T01:49:48.332Z,98711.97
2023-05-19T01:52:15.645Z,98707.59
2023-05-19T01:54:42.803Z,98717.50
2023-05-19T01:57:21.414Z,98713.34
2023-05-19T01:59:56.267Z,98709.16
2023-05-19T02:02:34.033Z,98718.13
2023-05-19T02:05:11.520Z,98717.81
2023-05-19T02:07:44.511Z,98714.06
2023-05-19T02:10:19.363Z,98722.50
2023-05-19T02:12:47.822Z,98712.03
2023-05-19T02:15:17.421Z,98716.69
2023-05-19T02:17:51.781Z,98722.06
2023-05-19T02:20:22.390Z,98723.44
2023-05-19T02:22:50.126Z,98724.44
2023-05-19T02:25:17.147Z,98731.81
2023-05-19T02:27:44.239Z,98737.41
2023-05-19T02:30:11.742Z,98739.63
2023-05-19T02:32:38.896Z,98737.47
2023-05-19T02:35:06.784Z,98730.97
2023-05-19T02:37:35.432Z,98728.81
2023-05-19T02:40:02.899Z,98736.00
2023-05-19T02:42:30.480Z,98730.47
2023-05-19T02:44:57.710Z,98737.06
2023-05-19T02:47:24.757Z,98749.16
2023-05-19T02:49:51.865Z,98742.66
2023-05-19T02:52:18.900Z,98747.03
2023-05-19T02:54:47.406Z,98748.00
2023-05-19T02:57:14.491Z,98744.88
2023-05-19T02:59:42.892Z,98753.38
2023-05-19T03:02:12.624Z,98752.63
2023-05-19T03:04:42.239Z,98757.78
2023-05-19T03:07:16.445Z,98750.81
2023-05-19T03:09:43.447Z,98757.56
2023-05-19T03:12:11.901Z,98764.06
2023-05-19T03:14:39.136Z,98758.31
2023-05-19T03:17:10.322Z,98764.84
2023-05-19T03:19:37.598Z,98765.06
2023-05-19T03:22:05.126Z,98778.59
2023-05-19T03:24:33.569Z,98790.69
2023-05-19T03:27:00.746Z,98788.09
2023-05-19T03:29:29.146Z,98788.38
2023-05-19T03:31:56.188Z,98795.41
2023-05-19T03:34:23.204Z,98801.06
2023-05-19T03:36:50.962Z,98794.31
2023-05-19T03:39:17.983Z,98796.69
2023-05-19T03:41:46.988Z,98800.78
2023-05-19T03:44:14.216Z,98801.91
2023-05-19T03:46:42.612Z,98799.94
2023-05-19T03:49:09.782Z,98805.63
2023-05-19T03:51:55.172Z,98807.78
2023-05-19T03:54:42.832Z,98799.84
2023-05-19T03:57:11.165Z,98815.47
2023-05-19T03:59:38.362Z,98809.38
2023-05-19T04:02:08.345Z,98804.34
2023-05-19T04:04:35.754Z,98807.09
2023-05-19T04:07:02.968Z,98808.34
2023-05-19T04:09:32.089Z,98812.88
2023-05-19T04:11:59.095Z,98814.44
2023-05-19T04:14:26.174Z,98825.69
2023-05-19T04:16:54.794Z,98826.19
2023-05-19T04:19:23.355Z,98831.47
2023-05-19T04:21:50.519Z,98823.84
2023-05-19T04:24:17.677Z,98823.16
2023-05-19T04:26:47.357Z,98829.25
2023-05-19T04:29:17.945Z,98820.47
2023-05-19T04:31:45.628Z,98826.47
2023-05-19T04:34:12.775Z,98831.00
2023-05-19T04:36:41.685Z,98823.72
2023-05-19T04:39:12.492Z,98831.72
2023-05-19T04:41:44.760Z,98832.28
2023-05-19T04:44:13.796Z,98824.69
2023-05-19T04:46:42.747Z,98826.16
2023-05-19T04:49:12.504Z,98830.09
2023-05-19T04:51:46.095Z,98831.97
2023-05-19T04:54:13.093Z,98829.97
2023-05-19T04:56:40.506Z,98827.44
2023-05-19T04:59:09.915Z,98829.63
2023-05-19T05:01:40.475Z,98833.16
2023-05-19T05:04:09.408Z,98830.31
2023-05-19T05:06:38.459Z,98837.00
2023-05-19T05:09:07.834Z,98828.16
2023-05-19T05:11:35.584Z,98829.97
2023-05-19T05:14:03.165Z,98833.19
2023-05-19T05:16:32.100Z,98835.59
2023-05-19T05:18:59.961Z,98829.66
2023-05-19T05:21:28.185Z,98831.81
2023-05-19T05:23:56.106Z,98837.88
2023-05-19T05:26:31.781Z,98834.56
2023-05-19T05:28:58.820Z,98837.22
2023-05-19T05:31:26.302Z,98837.03
2023-05-19T05:33:53.558Z,98842.16
2023-05-19T05:36:24.260Z,98835.78
2023-05-19T05:38:51.680Z,98839.34
2023-05-19T05:41:18.778Z,98835.81
2023-05-19T05:43:49.679Z,98840.53
2023-05-19T05:46:17.021Z,98845.81
2023-05-19T05:48:44.809Z,98842.63
2023-05-19T05:51:12.531Z,98833.75
2023-05-19T05:53:45.251Z,98839.13
2023-05-19T05:56:14.990Z,98842.81
2023-05-19T05:58:50.699Z,98843.19
2023-05-19T06:01:17.945Z,98844.44
2023-05-19T06:03:45.635Z,98848.56
2023-05-19T06:06:17.416Z,98848.66
2023-05-19T06:08:46.945Z,98856.47
2023-05-19T06:11:14.696Z,98863.78
2023-05-19T06:13:42.119Z,98850.28
2023-05-19T06:16:15.865Z,98857.56
2023-05-19T06:18:46.338Z,98859.94
2023-05-19T06:21:14.981Z,98856.03
2023-05-19T06:23:42.818Z,98857.88
2023-05-19T06:26:11.478Z,98858.94
2023-05-19T06:28:38.454Z,98865.19
2023-05-19T06:31:06.146Z,98870.16
2023-05-19T06:33:44.489Z,98867.53
2023-05-19T06:36:12.090Z,98863.88
2023-05-19T06:38:41.603Z,98872.22
2023-05-19T06:41:09.039Z,98866.75
2023-05-19T06:43:36.498Z,98873.81
2023-05-19T06:46:04.520Z,98880.38
2023-05-19T06:48:33.416Z,98880.56
2023-05-19T06:51:02.009Z,98873.25
2023-05-19T06:53:29.177Z,98878.47
2023-05-19T06:56:00.005Z,98885.28
2023-05-19T06:58:31.561Z,98870.59
2023-05-19T07:00:59.789Z,98874.72
2023-05-19T07:03:31.561Z,98874.84
2023-05-19T07:06:00.996Z,98867.69
2023-05-19T07:08:29.287Z,98878.47
2023-05-19T07:10:57.821Z,98869.97
2023-05-19T07:13:27.248Z,98876.63
2023-05-19T07:15:59.136Z,98884.81
2023-05-19T07:18:31.887Z,98875.06
2023-05-19T07:20:59.242Z,98875.88
2023-05-19T07:23:27.851Z,98875.91
2023-05-19T07:25:56.388Z,98873.63
2023-05-19T07:28:23.739Z,98873.47
2023-05-19T07:30:51.987Z,98878.31
2023-05-19T07:33:19.121Z,98873.28
2023-05-19T07:35:46.381Z,98869.38
2023-05-19T07:38:14.015Z,98871.94
2023-05-19T07:40:44.829Z,98875.84
2023-05-19T07:43:14.577Z,98876.88
2023-05-19T07:45:41.670Z,98867.38
2023-05-19T07:48:08.979Z,98863.63
2023-05-19T07:50:36.068Z,98875.31
2023-05-19T07:53:05.999Z,98875.03
2023-05-19T07:55:33.608Z,98868.94
2023-05-19T07:58:02.172Z,98870.63
2023-05-19T08:00:29.395Z,98862.13
2023-05-19T08:02:57.370Z,98860.03
2023-05-19T08:05:26.086Z,98862.41
2023-05-19T08:07:53.311Z,98861.31
2023-05-19T08:10:23.482Z,98867.97
2023-05-19T08:12:50.928Z,98874.13
2023-05-19T08:15:19.669Z,98862.44
2023-05-19T08:17:46.964Z,98862.47
2023-05-19T08:20:14.403Z,98861.94
2023-05-19T08:22:41.671Z,98860.44
2023-05-19T08:25:09.332Z,98852.88
2023-05-19T08:27:36.863Z,98861.25
2023-05-19T08:30:04.301Z,98855.66
2023-05-19T08:32:32.753Z,98852.16
2023-05-19T08:34:59.833Z,98848.88
2023-05-19T08:37:27.447Z,98849.94
2023-05-19T08:39:54.418Z,98844.97
2023-05-19T08:42:21.453Z,98850.09
2023-05-19T08:44:48.750Z,98842.16
2023-05-19T08:47:15.957Z,98847.09
2023-05-19T08:49:46.356Z,98850.94
2023-05-19T08:52:25.346Z,98843.13
2023-05-19T08:54:55.896Z,98843.13
2023-05-19T08:57:25.032Z,98835.03
2023-05-19T08:59:54.328Z,98841.25
2023-05-19T09:02:22.874Z,98841.34
2023-05-19T09:04:51.906Z,98833.59
2023-05-19T09:07:22.442Z,98833.16
2023-05-19T09:09:49.605Z,98827.53
2023-05-19T09:12:16.753Z,98832.69
2023-05-19T09:14:44.336Z,98829.06
2023-05-19T09:17:15.792Z,98824.88
2023-05-19T09:19:43.988Z,98823.72
2023-05-19T09:22:15.559Z,98821.78
2023-05-19T09:24:43.677Z,98822.59
2023-05-19T09:27:15.535Z,98826.72
2023-05-19T09:29:43.237Z,98824.69
2023-05-19T09:32:10.349Z,98827.53
2023-05-19T09:34:41.851Z,98823.78
2023-05-19T09:37:14.590Z,98827.25
2023-05-19T09:39:41.732Z,98813.06
2023-05-19T09:42:08.765Z,98813.25
2023-05-19T09:44:36.080Z,98817.09
2023-05-19T09:47:03.804Z,98812.94
2023-05-19T09:49:32.720Z,98811.63
2023-05-19T09:52:02.329Z,98808.81
2023-05-19T09:54:32.174Z,98805.97
2023-05-19T09:56:59.686Z,98807.22
2023-05-19T09:59:29.760Z,98812.72
2023-05-19T10:01:59.771Z,98806.44
2023-05-19T10:04:28.874Z,98796.06
2023-05-19T10:06:59.657Z,98798.59
2023-05-19T10:09:28.814Z,98797.50
2023-05-19T10:11:58.419Z,98790.00
2023-05-19T10:14:26.732Z,98793.31
2023-05-19T10:16:56.973Z,98783.59
2023-05-19T10:19:25.239Z,98786.84
2023-05-19T10:21:52.689Z,98786.09
2023-05-19T10:24:21.371Z,98781.03
2023-05-19T10:26:51.710Z,98789.56
2023-05-19T10:29:23.258Z,98783.63
2023-05-19T10:31:53.192Z,98787.22
2023-05-19T10:34:57.426Z,98774.78
2023-05-19T10:37:33.048Z,98770.97
2023-05-19T10:40:00.564Z,98774.81
2023-05-19T10:42:36.833Z,98770.34
2023-05-19T10:45:11.888Z,98776.09
2023-05-19T10:47:40.880Z,98767.69
2023-05-19T10:50:08.686Z,98764.88
2023-05-19T10:52:38.060Z,98760.78
2023-05-19T10:55:08.759Z,98755.84
2023-05-19T10:57:36.786Z,98749.72
2023-05-19T11:00:26.840Z,98744.44
2023-05-19T11:03:13.666Z,98741.31
2023-05-19T11:05:41.024Z,98736.06
2023-05-19T11:08:08.676Z,98724.09
2023-05-19T11:10:35.843Z,98725.78
2023-05-19T11:13:06.524Z,98722.97
2023-05-19T11:15:37.276Z,98717.91
2023-05-19T11:18:05.879Z,98724.97
2023-05-19T11:20:35.046Z,98723.94
2023-05-19T11:23:06.921Z,98712.47
2023-05-19T11:25:45.206Z,98703.50
2023-05-19T11:28:13.713Z,98719.94
2023-05-19T11:30:44.651Z,98710.47
2023-05-19T11:33:13.522Z,98704.13
2023-05-19T11:35:41.155Z,98701.81
2023-05-19T11:38:08.753Z,98692.66
2023-05-19T11:40:36.969Z,98693.78
2023-05-19T11:43:04.099Z,98691.84
2023-05-19T11:45:33.111Z,98683.19
2023-05-19T11:48:03.565Z,98698.81
2023-05-19T11:50:31.456Z,98696.50
2023-05-19T11:53:00.541Z,98707.44
2023-05-19T11:55:30.323Z,98701.97
2023-05-19T11:58:05.182Z,98696.22
2023-05-19T12:00:39.684Z,98700.91
2023-05-19T12:03:09.420Z,98709.94
2023-05-19T12:05:41.984Z,98717.28
2023-05-19T12:08:10.485Z,98713.72
2023-05-19T12:10:38.905Z,98744.50
2023-05-19T12:13:09.045Z,98739.94
2023-05-19T12:15:36.788Z,98747.75
2023-05-19T12:18:04.068Z,98740.56
2023-05-19T12:20:35.623Z,98760.19
2023-05-19T12:23:03.694Z,98778.81
2023-05-19T12:25:31.925Z,98780.47
2023-05-19T12:28:00.310Z,98805.56
2023-05-19T12:30:29.116Z,98800.72
2023-05-19T12:32:59.719Z,98796.88
2023-05-19T12:35:28.081Z,98778.66
2023-05-19T12:37:56.818Z,98774.75
2023-05-19T12:40:23.942Z,98765.34
2023-05-19T12:42:53.437Z,98775.00
2023-05-19T12:45:23.250Z,98791.94
2023-05-19T12:47:51.322Z,98801.34
2023-05-19T12:50:19.408Z,98800.28
2023-05-19T12:52:49.715Z,98808.38
2023-05-19T12:55:20.582Z,98797.41
2023-05-19T12:57:59.824Z,98792.16
2023-05-19T13:00:32.405Z,98793.19
2023-05-19T13:03:01.746Z,98801.00
2023-05-19T13:05:30.532Z,98790.53
2023-05-19T13:07:58.588Z,98783.19
2023-05-19T13:10:27.738Z,98783.19
2023-05-19T13:12:55.850Z,98784.75
2023-05-19T13:15:24.638Z,98791.56
2023-05-19T13:17:51.723Z,98789.97
2023-05-19T13:20:19.082Z,98790.91
2023-05-19T13:22:47.891Z,98787.38
2023-05-19T13:25:15.495Z,98810.56
2023-05-19T13:27:45.881Z,98809.16
2023-05-19T13:30:13.153Z,98805.66
2023-05-19T13:32:40.194Z,98805.25
2023-05-19T13:35:09.168Z,98812.66
2023-05-19T13:37:36.292Z,98788.16
2023-05-19T13:40:03.759Z,98790.31
2023-05-19T13:42:34.647Z,98800.09
2023-05-19T13:45:04.090Z,98798.59
2023-05-19T13:47:33.536Z,98799.22
2023-05-19T13:50:00.644Z,98803.94
2023-05-19T13:52:29.026Z,98805.56
2023-05-19T13:54:57.967Z,98797.94
2023-05-19T13:57:27.822Z,98789.72
2023-05-19T14:00:02.782Z,98781.84
2023-05-19T14:02:42.488Z,98779.75
2023-05-19T14:05:09.881Z,98771.88
2023-05-19T14:07:37.137Z,98779.22
2023-05-19T14:10:05.754Z,98782.41
2023-05-19T14:12:41.392Z,98798.78
2023-05-19T14:15:11.594Z,98790.91
2023-05-19T14:17:38.832Z,98782.06
2023-05-19T14:20:08.778Z,98789.41
2023-05-19T14:22:35.831Z,98792.59
2023-05-19T14:25:02.946Z,98782.13
2023-05-19T14:27:29.987Z,98781.03
2023-05-19T14:29:57.468Z,98786.22
2023-05-19T14:32:24.601Z,98773.56
2023-05-19T14:34:52.996Z,98781.44
2023-05-19T14:37:21.475Z,98780.88
2023-05-19T14:39:48.491Z,98782.22
2023-05-19T14:42:15.788Z,98779.16
2023-05-19T14:44:42.889Z,98783.63
2023-05-19T14:47:11.444Z,98793.13
2023-05-19T14:49:38.727Z,98800.56
2023-05-19T14:52:06.164Z,98803.22
2023-05-19T14:54:34.683Z,98804.34
2023-05-19T14:57:04.735Z,98804.16
2023-05-19T14:59:33.105Z,98801.06
2023-05-19T15:02:00.171Z,98801.19
2023-05-19T15:04:27.393Z,98796.28
2023-05-19T15:07:05.953Z,98800.78
2023-05-19T15:09:37.972Z,98795.63
2023-05-19T15:12:05.320Z,98794.13
2023-05-19T15:14:32.545Z,98798.88
2023-05-19T15:16:59.965Z,98804.38
2023-05-19T15:19:27.137Z,98804.66
2023-05-19T15:21:57.030Z,98808.09
2023-05-19T15:24:24.379Z,98806.81
2023-05-19T15:26:52.891Z,98814.16
2023-05-19T15:29:19.893Z,98813.69
2023-05-19T15:31:50.249Z,98821.81
2023-05-19T15:34:17.321Z,98822.09
2023-05-19T15:36:44.392Z,98823.69
2023-05-19T15:39:11.512Z,98819.00
2023-05-19T15:41:38.560Z,98830.84
2023-05-19T15:44:08.418Z,98829.56
2023-05-19T15:46:35.565Z,98829.66
2023-05-19T15:49:03.333Z,98840.25
2023-05-19T15:51:31.291Z,98833.97
2023-05-19T15:53:58.528Z,98841.06
2023-05-19T15:56:26.032Z,98847.09
2023-05-19T15:58:53.185Z,98846.31
2023-05-19T16:01:21.759Z,98848.66
2023-05-19T16:03:49.197Z,98848.66
2023-05-19T16:06:16.392Z,98855.75
2023-05-19T16:08:43.434Z,98850.00
2023-05-19T16:11:10.565Z,98857.63
2023-05-19T16:13:37.595Z,98858.16
2023-05-19T16:16:05.644Z,98862.91
2023-05-19T16:18:34.166Z,98878.06
2023-05-19T16:21:01.376Z,98870.81
2023-05-19T16:23:28.425Z,98877.13
2023-05-19T16:25:55.536Z,98890.19
2023-05-19T16:28:24.999Z,98889.69
2023-05-19T16:30:52.607Z,98897.56
2023-05-19T16:33:19.737Z,98892.09
2023-05-19T16:35:48.200Z,98892.38
2023-05-19T16:38:15.232Z,98895.53
2023-05-19T16:40:42.514Z,98893.44
2023-05-19T16:43:09.560Z,98886.72
2023-05-19T16:45:36.876Z,98891.94
2023-05-19T16:48:04.143Z,98890.38
2023-05-19T16:50:31.493Z,98886.50
2023-05-19T16:52:59.962Z,98888.88
2023-05-19T16:55:27.199Z,98887.84
2023-05-19T16:57:54.522Z,98886.28
2023-05-19T17:00:21.756Z,98898.56
2023-05-19T17:02:48.934Z,98898.06
2023-05-19T17:05:16.556Z,98891.78
2023-05-19T17:07:43.575Z,98898.84
2023-05-19T17:10:12.305Z,98893.34
2023-05-19T17:12:39.391Z,98889.97
2023-05-19T17:15:07.538Z,98884.25
2023-05-19T17:17:34.660Z,98888.94
2023-05-19T17:20:02.155Z,98883.47
2023-05-19T17:22:30.353Z,98886.63
2023-05-19T17:24:57.599Z,98891.59
2023-05-19T17:27:26.063Z,98888.72
2023-05-19T17:29:53.153Z,98886.63
2023-05-19T17:32:25.793Z,98893.38
2023-05-19T17:34:53.229Z,98898.31
2023-05-19T17:37:25.752Z,98905.59
2023-05-19T17:39:52.985Z,98900.91
2023-05-19T17:42:20.210Z,98902.44
2023-05-19T17:44:48.750Z,98912.56
2023-05-19T17:47:15.890Z,98912.53
2023-05-19T17:49:43.022Z,98910.56
2023-05-19T17:52:10.962Z,98921.69
2023-05-19T17:54:38.604Z,98919.28
2023-05-19T17:57:11.198Z,98928.63
2023-05-19T17:59:38.868Z,98930.91
2023-05-19T18:02:08.543Z,98924.09
2023-05-19T18:04:36.444Z,98923.53
2023-05-19T18:07:04.981Z,98931.56
2023-05-19T18:09:33.342Z,98927.00
2023-05-19T18:12:02.492Z,98935.25
2023-05-19T18:14:31.555Z,98934.16
2023-05-19T18:16:58.601Z,98944.28
2023-05-19T18:19:27.091Z,98943.88
2023-05-19T18:21:54.439Z,98946.66
2023-05-19T18:24:21.532Z,98949.00
2023-05-19T18:26:48.744Z,98954.94
2023-05-19T18:29:15.796Z,98952.75
2023-05-19T18:31:42.880Z,98964.03
2023-05-19T18:34:09.978Z,98966.19
2023-05-19T18:36:38.445Z,98968.16
2023-05-19T18:39:05.712Z,98969.88
2023-05-19T18:41:32.824Z,98968.00
2023-05-19T18:44:02.635Z,98971.78
2023-05-19T18:46:30.070Z,98987.34
2023-05-19T18:48:57.299Z,98981.09
2023-05-19T18:51:25.934Z,98984.72
2023-05-19T18:53:54.487Z,98990.38
2023-05-19T18:56:25.060Z,98988.19
2023-05-19T18:58:52.339Z,98998.25
2023-05-19T19:01:21.597Z,99002.38
2023-05-19T19:03:49.432Z,99000.41
2023-05-19T19:06:17.374Z,99003.78
2023-05-19T19:08:47.249Z,98996.97
2023-05-19T19:11:15.932Z,99005.81
2023-05-19T19:13:43.674Z,99003.09
2023-05-19T19:16:10.964Z,99000.88
2023-05-19T19:18:39.359Z,99000.47
2023-05-19T19:21:06.514Z,98998.94
2023-05-19T19:23:34.341Z,99009.78
2023-05-19T19:26:04.413Z,99009.31
2023-05-19T19:28:33.917Z,99005.63
2023-05-19T19:31:01.159Z,99015.34
2023-05-19T19:33:28.204Z,99008.59
2023-05-19T19:35:55.544Z,99013.69
2023-05-19T19:38:22.633Z,99002.69
2023-05-19T19:40:51.460Z,99019.84
2023-05-19T19:43:18.777Z,99022.03
2023-05-19T19:45:47.267Z,99016.50
2023-05-19T19:48:14.491Z,99014.72
2023-05-19T19:50:42.080Z,99015.72
2023-05-19T19:53:09.120Z,99003.09
2023-05-19T19:55:38.227Z,99001.31
2023-05-19T19:58:05.349Z,99005.78
2023-05-19T20:00:32.622Z,99016.94
2023-05-19T20:03:05.638Z,99018.19
2023-05-19T20:05:33.086Z,99004.88
2023-05-19T20:08:00.206Z,99004.59
2023-05-19T20:10:27.476Z,99009.19
2023-05-19T20:12:54.603Z,99010.53
2023-05-19T20:15:21.708Z,98994.63
2023-05-19T20:17:48.865Z,99002.41
2023-05-19T20:20:17.631Z,98994.06
2023-05-19T20:22:46.014Z,99004.88
2023-05-19T20:25:13.108Z,99011.25
2023-05-19T20:27:40.185Z,99002.69
2023-05-19T20:30:08.351Z,98997.03
2023-05-19T20:32:35.779Z,99004.81
2023-05-19T20:35:02.836Z,99006.38
2023-05-19T20:37:31.220Z,98999.16
2023-05-19T20:39:58.629Z,99002.06
2023-05-19T20:42:25.930Z,99005.34
2023-05-19T20:44:52.981Z,99004.34
2023-05-19T20:47:21.040Z,99013.25
2023-05-19T20:49:48.586Z,98999.53
2023-05-19T20:52:16.120Z,98997.16
2023-05-19T20:54:46.317Z,99000.53
2023-05-19T20:57:13.566Z,98995.94
2023-05-19T20:59:40.631Z,98999.06
2023-05-19T21:02:07.899Z,99002.81
2023-05-19T21:04:35.265Z,99004.03
2023-05-19T21:07:02.324Z,98997.38
2023-05-19T21:09:29.421Z,98988.69
2023-05-19T21:11:58.026Z,98987.56
2023-05-19T21:14:25.480Z,98995.63
2023-05-19T21:16:54.334Z,99001.94
2023-05-19T21:19:22.058Z,98992.03
2023-05-19T21:21:49.322Z,99001.31
2023-05-19T21:24:16.401Z,98996.59
2023-05-19T21:26:43.540Z,99010.53
2023-05-19T21:29:12.095Z,99020.44
2023-05-19T21:31:39.350Z,99024.84
2023-05-19T21:34:07.836Z,99022.72
2023-05-19T21:36:35.285Z,99019.31
2023-05-19T21:39:02.354Z,99036.44
2023-05-19T21:41:31.140Z,99023.03
2023-05-19T21:43:58.200Z,99026.88
2023-05-19T21:46:29.175Z,99031.59
2023-05-19T21:48:56.373Z,99030.81
2023-05-19T21:51:23.377Z,99031.25
2023-05-19T21:53:50.611Z,99030.59
2023-05-19T21:56:17.693Z,99029.50
2023-05-19T21:58:44.837Z,99029.94
2023-05-19T22:01:11.856Z,99036.06
2023-05-19T22:03:40.387Z,99029.75
2023-05-19T22:06:08.404Z,99024.25
2023-05-19T22:08:35.745Z,99019.97
2023-05-19T22:11:02.820Z,99021.69
2023-05-19T22:13:30.316Z,99012.91
2023-05-19T22:15:57.417Z,99014.03
2023-05-19T22:18:24.532Z,99019.66
2023-05-19T22:20:52.931Z,99026.16
2023-05-19T22:23:19.904Z,99023.03
2023-05-19T22:25:47.002Z,99025.41
2023-05-19T22:28:14.038Z,99012.47
2023-05-19T22:30:42.342Z,99019.19
2023-05-19T22:33:09.946Z,99019.75
2023-05-19T22:35:36.982Z,99024.69
2023-05-19T22:38:05.676Z,99023.47
2023-05-19T22:40:33.209Z,99016.25
2023-05-19T22:43:00.575Z,99019.41
2023-05-19T22:45:27.854Z,99007.47
2023-05-19T22:47:55.612Z,99014.78
2023-05-19T22:50:23.050Z,99018.53
2023-05-19T22:52:50.176Z,99021.22
2023-05-19T22:55:18.666Z,99013.94
2023-05-19T22:57:45.712Z,99013.94
2023-05-19T23:00:18.841Z,99015.16
2023-05-19T23:02:45.938Z,99017.19
2023-05-19T23:05:13.266Z,99028.00
2023-05-19T23:07:40.478Z,99012.78
2023-05-19T23:10:08.014Z,99004.56
2023-05-19T23:12:36.727Z,99011.22
2023-05-19T23:15:07.384Z,99007.28
2023-05-19T23:17:34.643Z,99004.56
2023-05-19T23:20:01.830Z,99002.22
2023-05-19T23:22:28.782Z,99004.47
2023-05-19T23:24:55.969Z,98999.97
2023-05-19T23:27:22.954Z,98999.75
2023-05-19T23:29:51.534Z,98995.59
2023-05-19T23:32:18.589Z,98992.88
2023-05-19T23:34:47.332Z,98987.94
2023-05-19T23:37:14.514Z,98991.31
2023-05-19T23:39:41.756Z,98986.13
2023-05-19T23:42:08.834Z,98985.56
2023-05-19T23:44:36.633Z,98972.84
2023-05-19T23:47:06.182Z,98974.91
2023-05-19T23:49:33.450Z,98981.84
2023-05-19T23:52:00.585Z,98975.91
2023-05-19T23:54:27.547Z,98969.50
2023-05-19T23:56:56.227Z,98982.66
2023-05-19T23:59:23.400Z,98975.34
